Time;durP1;ratioP1;P1;durP2;ratioP2;P2;SDS_P1;SDS_P2;PMS_P1;PMS_P2;Temp;Humidity;BMP_temperature;BMP_pressure;BME280_temperature;BME280_humidity;BME280_pressure;Samples;Min_cycle;Max_cycle;Signal;HPM_P1;HPM_P2
2023/06/03 00:01:32;;;;;;;3.57;1.90;;;11.60;67.80;;;;;;5092405;28;20481;-40
2023/06/03 00:03:59;;;;;;;2.27;1.70;;;12.20;68.70;;;;;;5092522;28;20440;-41
2023/06/03 00:06:25;;;;;;;3.90;2.07;;;12.20;68.80;;;;;;5091954;28;20546;-41
2023/06/03 00:08:52;;;;;;;2.40;1.57;;;11.70;68.30;;;;;;5092005;28;20444;-39
2023/06/03 00:11:19;;;;;;;2.33;1.07;;;11.90;68.80;;;;;;5092402;28;20434;-40
2023/06/03 00:13:45;;;;;;;6.20;2.07;;;11.90;68.90;;;;;;5092235;28;20412;-41
2023/06/03 00:16:13;;;;;;;5.20;1.50;;;11.50;69.00;;;;;;5073736;28;20921;-41
2023/06/03 00:18:40;;;;;;;4.07;1.70;;;11.20;68.90;;;;;;5098572;22;20474;-43
2023/06/03 00:21:06;;;;;;;3.40;1.80;;;11.70;69.60;;;;;;5072272;28;20473;-42
2023/06/03 00:23:33;;;;;;;3.60;1.43;;;11.60;69.50;;;;;;5072202;28;20443;-45
2023/06/03 00:26:00;;;;;;;5.07;1.40;;;11.50;69.50;;;;;;5072516;28;20420;-42
2023/06/03 00:28:26;;;;;;;2.40;1.60;;;11.90;69.80;;;;;;5072104;28;20432;-42
2023/06/03 00:30:53;;;;;;;2.80;1.60;;;11.40;69.60;;;;;;5055397;28;20422;-43
2023/06/03 00:33:21;;;;;;;5.67;1.60;;;11.50;70.00;;;;;;5057112;28;20445;-44
2023/06/03 00:35:48;;;;;;;3.70;1.77;;;11.50;70.10;;;;;;5074182;28;20438;-45
2023/06/03 00:38:15;;;;;;;1.97;1.30;;;11.50;70.00;;;;;;5075108;28;20420;-41
2023/06/03 00:40:42;;;;;;;4.53;2.20;;;11.30;69.90;;;;;;5076646;28;20552;-44
2023/06/03 00:43:08;;;;;;;2.60;1.60;;;10.90;69.60;;;;;;5075527;28;20488;-41
2023/06/03 00:45:35;;;;;;;4.40;1.30;;;11.10;69.90;;;;;;5057398;28;20442;-42
2023/06/03 00:48:02;;;;;;;2.67;1.70;;;11.70;70.90;;;;;;5074966;28;20445;-46
2023/06/03 00:50:30;;;;;;;3.17;1.73;;;11.20;70.30;;;;;;5071860;28;20401;-42
2023/06/03 00:52:57;;;;;;;4.87;2.03;;;11.70;71.20;;;;;;5054150;28;20921;-42
2023/06/03 00:55:25;;;;;;;2.87;1.50;;;11.20;70.40;;;;;;5071699;28;20440;-44
2023/06/03 00:57:52;;;;;;;3.23;1.93;;;11.60;71.00;;;;;;5071766;28;20424;-42
2023/06/03 01:00:18;;;;;;;3.10;1.83;;;11.50;70.90;;;;;;5071375;28;20485;-44
2023/06/03 01:02:46;;;;;;;3.57;1.60;;;11.20;71.00;;;;;;5071752;28;20433;-43
2023/06/03 01:05:13;;;;;;;3.90;1.67;;;11.50;71.40;;;;;;5053547;28;20800;-44
2023/06/03 01:07:51;;;;;;;2.40;1.37;;;11.10;71.00;;;;;;5071765;28;20424;-45
2023/06/03 01:10:23;;;;;;;5.07;1.60;;;11.10;71.20;;;;;;5071300;28;20480;-44
2023/06/03 01:12:59;;;;;;;3.60;1.50;;;11.50;71.80;;;;;;5053565;28;20875;-43
2023/06/03 01:15:29;;;;;;;2.20;1.23;;;10.80;71.10;;;;;;5071426;28;20414;-44
2023/06/03 01:18:00;;;;;;;3.50;1.63;;;11.30;71.70;;;;;;5053305;28;20476;-42
2023/06/03 01:20:35;;;;;;;3.47;1.63;;;11.20;71.70;;;;;;5053260;28;20891;-44
2023/06/03 01:23:20;;;;;;;2.20;1.40;;;11.10;72.00;;;;;;5053505;28;20495;-45
2023/06/03 01:25:50;;;;;;;3.73;1.47;;;11.10;72.20;;;;;;5053548;28;20454;-43
2023/06/03 01:28:17;;;;;;;2.83;1.33;;;10.70;71.70;;;;;;5070992;28;20456;-43
2023/06/03 01:30:44;;;;;;;3.20;1.30;;;10.70;71.80;;;;;;5071325;28;20934;-42
2023/06/03 01:33:11;;;;;;;3.97;2.03;;;11.20;72.40;;;;;;5071662;28;20411;-44
2023/06/03 01:35:39;;;;;;;5.43;1.27;;;11.10;72.20;;;;;;5072220;28;20408;-42
2023/06/03 01:38:07;;;;;;;5.57;1.30;;;10.50;71.80;;;;;;5056695;28;20519;-44
2023/06/03 01:40:36;;;;;;;8.13;1.60;;;11.00;72.50;;;;;;5056676;28;20508;-42
2023/06/03 01:43:04;;;;;;;2.50;1.53;;;11.10;72.70;;;;;;5056988;28;20427;-44
2023/06/03 01:45:31;;;;;;;3.80;1.77;;;10.50;71.90;;;;;;5056938;28;20440;-43
2023/06/03 01:47:57;;;;;;;3.60;1.60;;;10.60;72.10;;;;;;5056816;28;20466;-45
2023/06/03 01:50:24;;;;;;;4.00;1.53;;;10.40;72.70;;;;;;5056425;28;20454;-42
2023/06/03 01:52:51;;;;;;;2.00;1.50;;;10.90;72.70;;;;;;5056965;28;20555;-44
2023/06/03 01:55:19;;;;;;;5.00;1.13;;;10.90;72.80;;;;;;5056773;28;20959;-42
2023/06/03 01:57:48;;;;;;;3.13;1.63;;;10.40;72.20;;;;;;5056604;28;20470;-44
2023/06/03 02:00:16;;;;;;;4.13;1.60;;;10.30;72.30;;;;;;5056673;28;20798;-41
2023/06/03 02:02:43;;;;;;;2.47;1.37;;;10.40;72.90;;;;;;5074597;28;20945;-43
2023/06/03 02:05:10;;;;;;;3.37;1.73;;;10.90;73.40;;;;;;5056411;28;20438;-41
2023/06/03 02:07:37;;;;;;;5.77;2.17;;;10.20;73.00;;;;;;5056661;28;20447;-42
2023/06/03 02:10:04;;;;;;;4.60;1.40;;;10.40;72.90;;;;;;5055964;28;20446;-44
2023/06/03 02:12:31;;;;;;;2.63;1.73;;;10.50;73.20;;;;;;5057118;28;20822;-42
2023/06/03 02:14:59;;;;;;;2.70;1.50;;;10.40;73.50;;;;;;5057301;28;20805;-45
2023/06/03 02:17:28;;;;;;;2.43;1.40;;;10.20;73.40;;;;;;5057093;28;20475;-43
2023/06/03 02:19:55;;;;;;;3.57;1.67;;;10.20;73.70;;;;;;5056687;28;20453;-42
2023/06/03 02:22:22;;;;;;;4.00;1.80;;;10.10;73.90;;;;;;5074755;28;20539;-41
2023/06/03 02:24:49;;;;;;;2.67;1.90;;;10.70;74.50;;;;;;5056978;28;20442;-41
2023/06/03 02:27:19;;;;;;;2.53;1.30;;;10.10;73.90;;;;;;5056577;28;20584;-42
2023/06/03 02:29:50;;;;;;;2.50;1.40;;;10.10;73.50;;;;;;5056236;28;20472;-43
2023/06/03 02:32:18;;;;;;;3.20;1.67;;;10.10;74.00;;;;;;5056261;28;20947;-43
2023/06/03 02:34:45;;;;;;;4.10;1.70;;;10.00;73.90;;;;;;5073856;28;20438;-43
2023/06/03 02:37:12;;;;;;;3.00;1.60;;;10.10;74.10;;;;;;5055846;28;20817;-43
2023/06/03 02:39:38;;;;;;;5.00;1.70;;;10.40;74.40;;;;;;5055813;28;20450;-45
2023/06/03 02:42:06;;;;;;;2.87;1.70;;;10.40;75.20;;;;;;5055776;28;20452;-43
2023/06/03 02:44:33;;;;;;;2.10;1.23;;;10.10;74.10;;;;;;5073638;28;20404;-44
2023/06/03 02:47:00;;;;;;;2.30;1.40;;;10.00;74.10;;;;;;5072577;28;20428;-45
2023/06/03 02:49:28;;;;;;;4.03;1.30;;;10.30;74.10;;;;;;5055406;28;20420;-42
2023/06/03 02:51:55;;;;;;;4.37;1.37;;;9.90;75.00;;;;;;5055827;28;20527;-42
2023/06/03 02:54:22;;;;;;;2.00;1.30;;;9.90;75.30;;;;;;5055554;28;20984;-42
2023/06/03 02:56:49;;;;;;;3.07;1.30;;;10.40;74.30;;;;;;5073756;28;20476;-44
2023/06/03 02:59:16;;;;;;;5.10;1.70;;;10.00;74.10;;;;;;5073255;28;20422;-43
2023/06/03 03:01:43;;;;;;;4.13;1.63;;;10.10;74.40;;;;;;5055581;28;20551;-45
2023/06/03 03:04:10;;;;;;;3.50;1.47;;;10.40;74.70;;;;;;5073306;28;20434;-44
2023/06/03 03:06:40;;;;;;;3.53;1.73;;;10.10;74.20;;;;;;5073397;28;20407;-43
2023/06/03 03:09:07;;;;;;;2.00;1.33;;;9.60;74.80;;;;;;5055023;28;20838;-44
2023/06/03 03:11:39;;;;;;;1.80;1.20;;;10.00;73.50;;;;;;5055282;28;20477;-43
2023/06/03 03:14:07;;;;;;;3.70;1.47;;;10.00;73.70;;;;;;5055463;28;20466;-42
2023/06/03 03:16:35;;;;;;;3.63;1.40;;;10.20;73.60;;;;;;5073047;28;20433;-42
2023/06/03 03:19:03;;;;;;;5.37;1.63;;;10.40;74.00;;;;;;5055119;28;20425;-42
2023/06/03 03:21:30;;;;;;;2.23;1.40;;;9.90;74.60;;;;;;5054983;28;20480;-43
2023/06/03 03:24:01;;;;;;;3.30;1.67;;;10.10;73.70;;;;;;5055106;28;20485;-43
2023/06/03 03:26:32;;;;;;;6.87;1.80;;;10.00;73.50;;;;;;5054732;28;20453;-43
2023/06/03 03:28:59;;;;;;;3.73;1.93;;;10.20;73.50;;;;;;5054756;28;20507;-42
2023/06/03 03:31:27;;;;;;;4.03;2.33;;;10.10;73.30;;;;;;5054839;28;20438;-44
2023/06/03 03:33:54;;;;;;;2.77;1.60;;;10.10;73.30;;;;;;5054873;28;20454;-44
2023/06/03 03:36:22;;;;;;;3.77;1.70;;;10.60;73.80;;;;;;5054986;28;20436;-45
2023/06/03 03:39:01;;;;;;;4.20;2.30;;;10.50;73.60;;;;;;5054547;28;20461;-43
2023/06/03 03:41:29;;;;;;;2.80;1.67;;;10.70;73.60;;;;;;5054750;28;20452;-44
2023/06/03 03:43:57;;;;;;;5.77;3.10;;;10.60;73.50;;;;;;5054762;28;20454;-44
2023/06/03 03:46:24;;;;;;;3.93;2.10;;;10.30;73.10;;;;;;5054589;28;20701;-44
2023/06/03 03:48:52;;;;;;;4.50;1.57;;;10.50;73.20;;;;;;5054192;28;20718;-43
2023/06/03 03:51:18;;;;;;;2.77;1.30;;;10.50;73.00;;;;;;5054681;28;20541;-43
2023/06/03 03:53:47;;;;;;;2.97;1.60;;;10.50;72.70;;;;;;5055122;28;20442;-44
2023/06/03 03:56:21;;;;;;;3.43;1.70;;;10.90;72.80;;;;;;5054588;28;20445;-42
2023/06/03 03:58:55;;;;;;;5.00;1.80;;;10.90;72.80;;;;;;5053841;28;20455;-43
2023/06/03 04:01:28;;;;;;;3.63;1.00;;;10.60;71.90;;;;;;5054591;28;20451;-42
2023/06/03 04:04:06;;;;;;;4.20;1.60;;;10.60;71.50;;;;;;5054368;28;20442;-40
2023/06/03 04:06:36;;;;;;;3.77;1.33;;;10.90;71.20;;;;;;5054242;28;20457;-43
2023/06/03 04:09:04;;;;;;;2.77;1.70;;;11.20;71.00;;;;;;5072129;28;20438;-43
2023/06/03 04:11:36;;;;;;;2.33;1.17;;;11.50;70.80;;;;;;5054098;28;20424;-43
2023/06/03 04:14:08;;;;;;;3.07;1.87;;;11.40;70.10;;;;;;5054302;28;20937;-42
2023/06/03 04:16:51;;;;;;;2.03;1.17;;;10.90;68.90;;;;;;5054326;28;20417;-43
2023/06/03 04:19:30;;;;;;;2.10;1.50;;;11.70;69.10;;;;;;5054022;28;20431;-43
2023/06/03 04:21:58;;;;;;;4.43;1.30;;;11.40;68.40;;;;;;5055651;28;20478;-44
2023/06/03 04:24:25;;;;;;;2.83;1.70;;;12.10;68.80;;;;;;5073773;28;20434;-42
2023/06/03 04:26:51;;;;;;;2.60;1.50;;;12.30;68.50;;;;;;5055516;28;20542;-43
2023/06/03 04:29:19;;;;;;;2.03;1.40;;;12.10;67.60;;;;;;5055136;28;20540;-43
2023/06/03 04:31:46;;;;;;;4.70;1.77;;;12.20;67.40;;;;;;5056350;28;20458;-42
2023/06/03 04:34:13;;;;;;;2.90;1.67;;;12.50;67.50;;;;;;5057221;28;20429;-45
2023/06/03 04:36:40;;;;;;;2.60;1.37;;;12.30;67.00;;;;;;5055566;28;20472;-41
2023/06/03 04:39:08;;;;;;;2.73;1.50;;;12.60;67.00;;;;;;5055036;28;20478;-42
2023/06/03 04:41:38;;;;;;;2.37;1.43;;;13.10;67.70;;;;;;5053915;28;20981;-42
2023/06/03 04:44:05;;;;;;;4.10;1.60;;;12.90;66.50;;;;;;5053954;28;20441;-44
2023/06/03 04:46:35;;;;;;;5.73;1.67;;;13.10;66.50;;;;;;5053694;28;20462;-42
2023/06/03 04:49:02;;;;;;;2.73;1.50;;;13.10;66.20;;;;;;5053388;28;20446;-44
2023/06/03 04:51:33;;;;;;;3.73;1.27;;;12.80;65.60;;;;;;5053785;28;20451;-42
2023/06/03 04:54:03;;;;;;;2.70;1.60;;;12.70;65.40;;;;;;5053763;28;20447;-42
2023/06/03 04:56:30;;;;;;;4.50;1.70;;;13.20;66.00;;;;;;5053562;28;20423;-44
2023/06/03 04:59:00;;;;;;;3.50;1.63;;;13.00;65.90;;;;;;5053395;28;20446;-42
2023/06/03 05:01:31;;;;;;;4.50;1.60;;;13.10;65.90;;;;;;5053577;28;20804;-44
2023/06/03 05:03:59;;;;;;;2.10;1.30;;;13.20;65.90;;;;;;5071634;28;20438;-44
2023/06/03 05:06:26;;;;;;;2.67;1.53;;;13.00;65.40;;;;;;5053615;28;20443;-43
2023/06/03 05:08:52;;;;;;;3.40;1.70;;;13.50;65.70;;;;;;5052981;28;20503;-41
2023/06/03 05:11:20;;;;;;;3.90;1.67;;;13.50;65.50;;;;;;5055682;28;20525;-42
2023/06/03 05:13:48;;;;;;;8.23;2.20;;;13.50;65.30;;;;;;5057293;28;20439;-39
2023/06/03 05:16:15;;;;;;;2.57;1.50;;;12.70;64.50;;;;;;5057256;28;20454;-42
2023/06/03 05:18:43;;;;;;;9.30;1.80;;;13.50;65.00;;;;;;5056636;28;20986;-42
2023/06/03 05:21:11;;;;;;;3.23;1.50;;;13.60;64.90;;;;;;5057144;28;20807;-41
2023/06/03 05:23:38;;;;;;;4.67;1.50;;;13.60;64.30;;;;;;5057046;28;20512;-43
2023/06/03 05:26:06;;;;;;;3.50;1.97;;;14.10;64.50;;;;;;5056945;28;20444;-41
2023/06/03 05:28:33;;;;;;;5.03;2.07;;;13.90;63.70;;;;;;5074450;28;20454;-42
2023/06/03 05:31:00;;;;;;;3.53;1.87;;;13.90;63.50;;;;;;5057026;28;20459;-42
2023/06/03 05:33:27;;;;;;;3.63;1.73;;;14.00;63.10;;;;;;5056934;28;20476;-41
2023/06/03 05:35:58;;;;;;;6.40;2.17;;;13.90;63.00;;;;;;5056988;28;20452;-41
2023/06/03 05:38:27;;;;;;;3.23;2.10;;;13.40;62.50;;;;;;5056771;28;20476;-42
2023/06/03 05:40:55;;;;;;;4.07;2.10;;;13.90;63.30;;;;;;5056952;28;20444;-42
2023/06/03 05:43:24;;;;;;;4.70;2.37;;;13.60;62.70;;;;;;5056730;28;20491;-44
2023/06/03 05:45:52;;;;;;;4.40;1.80;;;14.40;63.30;;;;;;5056733;28;20427;-43
2023/06/03 05:48:20;;;;;;;4.17;1.70;;;14.20;63.10;;;;;;5056255;28;20470;-42
2023/06/03 05:50:51;;;;;;;3.70;2.13;;;14.20;63.00;;;;;;5056600;28;20933;-43
2023/06/03 05:53:20;;;;;;;3.23;1.50;;;14.60;63.40;;;;;;5074822;28;20419;-42
2023/06/03 05:55:48;;;;;;;7.77;2.17;;;14.40;62.70;;;;;;5056679;28;20459;-44
2023/06/03 05:58:15;;;;;;;4.23;2.70;;;14.50;62.30;;;;;;5074115;28;20475;-44
2023/06/03 06:00:42;;;;;;;2.47;1.70;;;14.60;62.00;;;;;;5056503;28;20447;-42
2023/06/03 06:03:09;;;;;;;3.73;1.87;;;15.10;61.60;;;;;;5074189;28;20538;-45
2023/06/03 06:05:36;;;;;;;4.03;2.17;;;15.00;60.80;;;;;;5056367;28;20426;-42
2023/06/03 06:08:02;;;;;;;5.23;2.90;;;15.20;60.50;;;;;;5056517;28;20470;-42
2023/06/03 06:10:29;;;;;;;3.47;1.50;;;15.70;60.40;;;;;;5074566;28;20445;-45
2023/06/03 06:12:57;;;;;;;3.43;1.67;;;15.30;59.60;;;;;;5056369;28;20818;-43
2023/06/03 06:15:24;;;;;;;4.63;2.10;;;15.40;59.40;;;;;;5056330;28;20456;-43
2023/06/03 06:17:51;;;;;;;6.10;2.10;;;15.50;59.20;;;;;;5076323;22;20518;-45
2023/06/03 06:20:17;;;;;;;8.50;2.63;;;15.60;58.90;;;;;;5069529;28;20447;-45
2023/06/03 06:22:45;;;;;;;4.43;1.90;;;15.60;58.60;;;;;;5069170;28;20483;-45
2023/06/03 06:25:11;;;;;;;6.60;2.63;;;15.70;58.50;;;;;;5052514;28;20451;-47
2023/06/03 06:27:39;;;;;;;4.03;1.93;;;16.10;58.40;;;;;;5069199;28;21081;-45
2023/06/03 06:30:08;;;;;;;2.97;2.10;;;16.30;58.30;;;;;;5052159;28;20537;-46
2023/06/03 06:32:47;;;;;;;4.13;1.70;;;15.80;57.50;;;;;;5052799;28;20811;-45
2023/06/03 06:35:15;;;;;;;9.53;2.80;;;16.20;57.50;;;;;;5052552;28;20866;-45
2023/06/03 06:37:42;;;;;;;2.63;1.70;;;15.80;57.20;;;;;;5052324;28;20470;-47
2023/06/03 06:40:14;;;;;;;4.30;2.77;;;16.10;57.20;;;;;;5053501;28;20434;-46
2023/06/03 06:42:45;;;;;;;3.97;2.70;;;15.90;56.80;;;;;;5052419;28;20498;-45
2023/06/03 06:45:25;;;;;;;3.83;2.10;;;16.10;56.80;;;;;;5053989;28;20407;-45
2023/06/03 06:48:02;;;;;;;7.43;2.23;;;16.10;56.70;;;;;;5052478;28;20494;-45
2023/06/03 06:50:35;;;;;;;3.50;2.00;;;16.40;57.00;;;;;;5052282;28;20500;-45
2023/06/03 06:53:04;;;;;;;7.10;2.43;;;16.10;56.70;;;;;;5052429;28;20544;-46
2023/06/03 06:55:41;;;;;;;3.17;1.90;;;16.10;56.80;;;;;;5052351;28;20455;-44
2023/06/03 06:58:09;;;;;;;4.73;1.87;;;16.10;57.40;;;;;;5051799;28;20441;-46
2023/06/03 07:00:39;;;;;;;4.70;2.10;;;16.10;56.80;;;;;;5052280;28;20449;-46
2023/06/03 07:03:08;;;;;;;8.60;2.13;;;15.70;56.40;;;;;;5052276;28;20552;-46
2023/06/03 07:05:35;;;;;;;2.73;1.70;;;15.90;56.60;;;;;;5052036;28;20450;-46
2023/06/03 07:08:02;;;;;;;3.87;3.00;;;16.00;56.80;;;;;;5052999;28;20454;-44
2023/06/03 07:10:29;;;;;;;4.87;2.77;;;16.00;56.70;;;;;;5051897;28;20799;-44
2023/06/03 07:12:57;;;;;;;6.43;3.83;;;16.00;56.70;;;;;;5051757;28;20447;-45
2023/06/03 07:15:24;;;;;;;8.17;3.57;;;16.00;56.70;;;;;;5052083;28;20980;-46
2023/06/03 07:17:53;;;;;;;4.57;3.50;;;16.40;57.20;;;;;;5052000;28;20492;-46
2023/06/03 07:20:23;;;;;;;6.17;4.03;;;16.10;56.80;;;;;;5051465;28;20445;-45
2023/06/03 07:22:51;;;;;;;5.83;3.17;;;16.10;56.90;;;;;;5051835;28;20483;-45
2023/06/03 07:25:30;;;;;;;4.90;2.33;;;16.10;57.00;;;;;;5052282;28;20482;-45
2023/06/03 07:27:57;;;;;;;17.80;9.10;;;16.10;57.00;;;;;;5051776;28;20978;-46
2023/06/03 07:30:24;;;;;;;5.73;2.90;;;16.10;56.90;;;;;;5051089;28;20432;-45
2023/06/03 07:32:55;;;;;;;8.07;2.50;;;16.20;56.80;;;;;;5050929;28;20505;-45
2023/06/03 07:35:21;;;;;;;5.40;2.80;;;16.20;56.60;;;;;;5051420;28;20541;-45
2023/06/03 07:37:49;;;;;;;4.73;2.20;;;15.60;55.80;;;;;;5051990;28;20466;-47
2023/06/03 07:40:16;;;;;;;6.23;3.70;;;16.00;56.20;;;;;;5051906;28;20443;-46
2023/06/03 07:42:59;;;;;;;4.07;2.47;;;16.20;56.40;;;;;;5052888;28;20508;-46
2023/06/03 07:45:28;;;;;;;5.13;2.67;;;16.30;56.60;;;;;;5051733;28;20451;-46
2023/06/03 07:47:57;;;;;;;3.63;1.57;;;16.30;56.10;;;;;;5052390;28;20459;-46
2023/06/03 07:50:26;;;;;;;20.97;15.63;;;16.40;56.00;;;;;;5052274;28;20868;-45
2023/06/03 07:52:59;;;;;;;6.63;5.00;;;16.30;55.40;;;;;;5051846;28;20431;-45
2023/06/03 07:55:26;;;;;;;6.53;3.30;;;16.40;55.10;;;;;;5051864;28;20568;-44
2023/06/03 07:57:53;;;;;;;8.23;2.90;;;16.40;55.20;;;;;;5051844;28;20465;-45
2023/06/03 08:00:20;;;;;;;4.17;2.27;;;16.40;55.30;;;;;;5052213;28;20435;-44
2023/06/03 08:02:46;;;;;;;5.90;2.23;;;16.50;55.30;;;;;;5050662;28;20471;-45
2023/06/03 08:05:16;;;;;;;3.53;1.97;;;16.50;55.60;;;;;;5051991;28;20454;-45
2023/06/03 08:07:45;;;;;;;5.80;2.03;;;16.50;54.50;;;;;;5052010;28;20425;-45
2023/06/03 08:10:22;;;;;;;4.73;1.70;;;17.00;54.70;;;;;;5050367;28;20925;-45
2023/06/03 08:12:49;;;;;;;3.97;2.00;;;16.70;54.20;;;;;;5052115;28;20405;-44
2023/06/03 08:15:26;;;;;;;2.13;1.67;;;16.60;54.20;;;;;;5052104;28;20442;-45
2023/06/03 08:17:53;;;;;;;7.00;1.87;;;16.70;54.00;;;;;;5051592;28;20466;-45
2023/06/03 08:20:25;;;;;;;3.43;1.60;;;16.80;54.00;;;;;;5051773;28;20431;-45
2023/06/03 08:22:52;;;;;;;2.67;2.00;;;16.70;53.50;;;;;;5051627;28;20502;-45
2023/06/03 08:25:18;;;;;;;2.53;1.50;;;17.10;53.60;;;;;;5050505;28;20442;-46
2023/06/03 08:27:45;;;;;;;3.63;1.73;;;16.60;53.10;;;;;;5051839;28;20473;-46
2023/06/03 08:30:13;;;;;;;6.50;1.67;;;16.70;53.20;;;;;;5051544;28;20469;-45
2023/06/03 08:32:40;;;;;;;3.80;1.80;;;16.70;53.30;;;;;;5050677;28;20451;-44
2023/06/03 08:35:09;;;;;;;3.47;1.53;;;16.70;53.80;;;;;;5052555;28;20434;-46
2023/06/03 08:37:37;;;;;;;3.20;1.70;;;16.60;53.80;;;;;;5052197;28;20456;-45
2023/06/03 08:40:07;;;;;;;4.30;1.93;;;16.60;53.90;;;;;;5051769;28;20446;-45
2023/06/03 08:42:40;;;;;;;2.97;2.10;;;16.60;54.10;;;;;;5050130;28;20459;-43
2023/06/03 08:45:09;;;;;;;4.17;2.07;;;16.60;54.20;;;;;;5053516;28;20462;-46
2023/06/03 08:47:57;;;;;;;12.60;1.77;;;16.50;54.20;;;;;;5055552;28;20462;-45
2023/06/03 08:50:25;;;;;;;2.60;1.67;;;16.70;53.80;;;;;;5055546;28;20433;-44
2023/06/03 08:52:55;;;;;;;2.73;1.67;;;16.70;53.60;;;;;;5055796;28;20441;-45
2023/06/03 08:55:23;;;;;;;4.30;1.50;;;16.60;53.40;;;;;;5056449;28;20435;-45
2023/06/03 08:57:56;;;;;;;2.97;2.10;;;16.70;53.50;;;;;;5055782;28;20466;-44
2023/06/03 09:00:25;;;;;;;9.60;1.83;;;16.80;53.40;;;;;;5055383;28;20440;-46
2023/06/03 09:02:52;;;;;;;4.30;1.50;;;16.80;52.90;;;;;;5055386;28;20433;-44
2023/06/03 09:05:20;;;;;;;4.63;2.03;;;16.90;52.80;;;;;;5055410;28;20431;-46
2023/06/03 09:07:47;;;;;;;5.50;1.90;;;17.00;52.80;;;;;;5055797;28;20819;-46
2023/06/03 09:10:16;;;;;;;4.40;1.87;;;16.90;52.90;;;;;;5054285;28;20458;-45
2023/06/03 09:12:44;;;;;;;3.03;1.97;;;16.80;53.10;;;;;;5056664;28;20466;-46
2023/06/03 09:15:14;;;;;;;2.37;1.30;;;16.90;53.00;;;;;;5057073;28;20465;-44
2023/06/03 09:17:41;;;;;;;2.63;1.40;;;16.80;51.90;;;;;;5057155;28;20475;-46
2023/06/03 09:20:08;;;;;;;8.00;2.03;;;16.90;52.10;;;;;;5056365;28;20430;-45
2023/06/03 09:22:36;;;;;;;2.70;1.20;;;17.30;52.30;;;;;;5056318;28;20446;-45
2023/06/03 09:25:03;;;;;;;3.97;1.57;;;17.10;52.00;;;;;;5056000;28;20511;-45
2023/06/03 09:27:31;;;;;;;2.60;1.60;;;17.20;52.00;;;;;;5054106;28;20471;-47
2023/06/03 09:29:58;;;;;;;3.97;1.97;;;17.10;51.80;;;;;;5055264;28;20439;-46
2023/06/03 09:32:24;;;;;;;2.50;1.80;;;16.80;51.50;;;;;;5055272;28;20431;-46
2023/06/03 09:34:53;;;;;;;2.80;1.97;;;17.30;51.30;;;;;;5055436;28;20542;-45
2023/06/03 09:37:20;;;;;;;3.63;2.23;;;17.40;51.30;;;;;;5055197;28;20990;-44
2023/06/03 09:39:48;;;;;;;4.00;1.60;;;17.30;51.20;;;;;;5054815;28;20929;-45
2023/06/03 09:42:15;;;;;;;6.60;2.37;;;17.30;50.80;;;;;;5055017;28;20559;-47
2023/06/03 09:44:45;;;;;;;4.80;2.00;;;17.40;50.70;;;;;;5053988;28;21041;-44
2023/06/03 09:47:13;;;;;;;3.07;1.70;;;17.20;50.70;;;;;;5053322;28;20471;-47
2023/06/03 09:49:41;;;;;;;4.40;1.87;;;17.20;50.40;;;;;;5054367;28;20439;-45
2023/06/03 09:52:10;;;;;;;3.90;2.03;;;17.10;50.20;;;;;;5055095;28;20443;-45
2023/06/03 09:54:36;;;;;;;5.97;1.97;;;16.70;49.70;;;;;;5054479;28;20841;-45
2023/06/03 09:57:11;;;;;;;2.43;1.43;;;17.20;50.00;;;;;;5054200;28;20441;-45
2023/06/03 09:59:38;;;;;;;2.50;1.43;;;17.70;50.50;;;;;;5052204;28;20489;-45
2023/06/03 10:02:12;;;;;;;3.93;1.50;;;17.40;49.90;;;;;;5054171;28;20414;-45
2023/06/03 10:04:40;;;;;;;3.73;1.47;;;17.40;49.80;;;;;;5054587;28;20684;-45
2023/06/03 10:07:11;;;;;;;6.70;1.83;;;17.50;49.60;;;;;;5054125;28;20444;-47
2023/06/03 10:09:38;;;;;;;2.73;1.43;;;17.50;49.40;;;;;;5053879;28;20445;-45
2023/06/03 10:12:07;;;;;;;5.50;2.20;;;17.40;49.60;;;;;;5054333;28;20443;-46
2023/06/03 10:14:34;;;;;;;4.00;2.63;;;17.60;49.50;;;;;;5055073;28;20457;-46
2023/06/03 10:17:06;;;;;;;5.97;1.80;;;17.60;49.20;;;;;;5054371;28;20417;-44
2023/06/03 10:19:35;;;;;;;6.00;2.20;;;17.70;48.90;;;;;;5053993;28;20527;-44
2023/06/03 10:22:03;;;;;;;2.90;1.40;;;17.50;48.40;;;;;;5054164;28;20798;-46
2023/06/03 10:24:31;;;;;;;3.70;2.40;;;17.60;48.60;;;;;;5054003;28;20476;-46
2023/06/03 10:26:58;;;;;;;3.10;1.50;;;17.80;48.60;;;;;;5053795;28;20420;-46
2023/06/03 10:29:26;;;;;;;10.00;1.83;;;17.80;48.90;;;;;;5053478;28;20442;-46
2023/06/03 10:31:54;;;;;;;5.33;1.80;;;17.90;48.90;;;;;;5053735;28;20442;-45
2023/06/03 10:34:21;;;;;;;4.80;2.00;;;18.00;48.90;;;;;;5053616;28;20440;-46
2023/06/03 10:36:52;;;;;;;3.83;1.30;;;17.90;48.50;;;;;;5054114;28;20409;-46
2023/06/03 10:39:19;;;;;;;5.30;2.00;;;17.80;48.10;;;;;;5053268;28;20445;-45
2023/06/03 10:41:47;;;;;;;2.57;1.63;;;17.90;48.60;;;;;;5053310;28;20807;-45
2023/06/03 10:44:13;;;;;;;2.90;1.47;;;18.10;48.40;;;;;;5053479;28;20446;-46
2023/06/03 10:46:50;;;;;;;4.13;1.33;;;18.10;47.80;;;;;;5053681;28;20432;-46
2023/06/03 10:49:20;;;;;;;6.87;1.70;;;17.80;47.30;;;;;;5053123;28;20941;-45
2023/06/03 10:52:02;;;;;;;2.57;1.57;;;18.20;47.60;;;;;;5053585;28;20438;-45
2023/06/03 10:54:41;;;;;;;4.07;1.40;;;18.20;47.30;;;;;;5053339;28;20433;-45
2023/06/03 10:57:12;;;;;;;5.40;1.60;;;18.40;47.70;;;;;;5052775;28;20436;-46
2023/06/03 10:59:43;;;;;;;4.77;1.90;;;17.90;47.40;;;;;;5053084;28;20442;-45
2023/06/03 11:02:10;;;;;;;2.57;1.63;;;18.30;47.80;;;;;;5051680;28;20447;-47
2023/06/03 11:04:39;;;;;;;3.30;1.50;;;18.40;47.40;;;;;;5052796;28;20843;-45
2023/06/03 11:07:28;;;;;;;2.97;1.70;;;18.20;47.40;;;;;;5052865;28;20794;-45
2023/06/03 11:09:55;;;;;;;3.83;1.20;;;18.40;47.30;;;;;;5050374;28;20469;-45
2023/06/03 11:12:21;;;;;;;7.47;2.40;;;17.90;47.20;;;;;;5054747;28;20474;-45
2023/06/03 11:14:57;;;;;;;4.67;1.87;;;18.20;47.50;;;;;;5053367;28;20934;-48
2023/06/03 11:17:25;;;;;;;6.73;1.33;;;18.20;47.60;;;;;;5052352;28;20543;-44
2023/06/03 11:19:54;;;;;;;6.07;1.57;;;18.00;47.70;;;;;;5052733;28;20434;-45
2023/06/03 11:22:41;;;;;;;8.00;1.60;;;18.20;48.20;;;;;;5051995;28;20543;-46
2023/06/03 11:25:09;;;;;;;2.93;1.40;;;18.30;48.00;;;;;;5052455;28;20852;-45
2023/06/03 11:27:36;;;;;;;4.07;1.17;;;18.50;48.30;;;;;;5052335;28;20507;-45
2023/06/03 11:30:11;;;;;;;10.20;1.77;;;18.40;47.90;;;;;;5130743;27;20849;-47
2023/06/03 11:32:38;;;;;;;3.30;1.60;;;17.90;47.80;;;;;;5130098;28;20442;-46
2023/06/03 11:35:27;;;;;;;3.53;1.70;;;18.60;48.30;;;;;;5130355;28;20408;-45
2023/06/03 11:37:54;;;;;;;3.20;1.53;;;18.40;48.20;;;;;;5130120;28;20490;-46
2023/06/03 11:40:22;;;;;;;3.30;1.60;;;18.40;47.80;;;;;;5129612;27;20516;-45
2023/06/03 11:43:07;;;;;;;4.47;1.60;;;18.40;47.30;;;;;;5151101;22;20500;-45
2023/06/03 11:45:37;;;;;;;4.43;1.63;;;18.40;47.30;;;;;;5131400;28;20788;-46
2023/06/03 11:48:07;;;;;;;3.63;1.27;;;18.50;47.50;;;;;;5130722;28;20847;-45
2023/06/03 11:50:47;;;;;;;4.87;1.37;;;18.10;46.80;;;;;;5112565;28;20537;-46
2023/06/03 11:53:31;;;;;;;3.77;1.23;;;18.50;46.80;;;;;;5110285;28;20421;-45
2023/06/03 11:56:05;;;;;;;6.03;2.00;;;18.30;46.80;;;;;;5110134;28;20532;-44
2023/06/03 11:58:32;;;;;;;3.33;1.60;;;18.40;47.00;;;;;;5109770;28;20433;-44
2023/06/03 12:01:08;;;;;;;2.80;1.50;;;18.80;47.40;;;;;;5110336;28;20470;-45
2023/06/03 12:03:36;;;;;;;4.47;1.47;;;18.30;46.90;;;;;;5110604;28;20443;-44
2023/06/03 12:06:04;;;;;;;2.50;1.50;;;18.40;46.90;;;;;;5111071;28;20485;-45
2023/06/03 12:08:45;;;;;;;7.40;1.53;;;18.70;47.10;;;;;;5110257;28;20466;-45
2023/06/03 12:11:25;;;;;;;2.87;1.40;;;18.50;47.10;;;;;;5092087;28;20463;-45
2023/06/03 12:13:52;;;;;;;2.40;1.40;;;18.80;47.20;;;;;;5110263;28;20443;-45
2023/06/03 12:16:28;;;;;;;2.97;1.37;;;18.80;47.20;;;;;;5110382;28;20431;-45
2023/06/03 12:18:55;;;;;;;8.50;2.50;;;18.80;46.50;;;;;;5110863;28;20409;-45
2023/06/03 12:21:22;;;;;;;2.87;1.63;;;18.90;46.40;;;;;;5111480;28;20511;-46
2023/06/03 12:23:49;;;;;;;2.53;1.20;;;18.60;45.70;;;;;;5111651;28;20421;-44
2023/06/03 12:26:16;;;;;;;2.90;1.13;;;18.70;45.50;;;;;;5111578;28;20442;-45
2023/06/03 12:28:42;;;;;;;4.97;1.20;;;18.60;45.30;;;;;;5110189;28;20485;-45
2023/06/03 12:31:14;;;;;;;2.50;1.40;;;18.60;45.50;;;;;;5111229;28;20432;-45
2023/06/03 12:33:43;;;;;;;5.10;1.87;;;18.70;45.50;;;;;;5111599;28;20442;-44
2023/06/03 12:36:10;;;;;;;3.63;1.17;;;18.70;45.70;;;;;;5111109;28;20919;-45
2023/06/03 12:38:55;;;;;;;3.63;1.67;;;18.60;45.10;;;;;;5111199;28;20488;-45
2023/06/03 12:41:22;;;;;;;3.67;1.37;;;19.00;45.20;;;;;;5099387;28;20536;-44
2023/06/03 12:43:50;;;;;;;3.20;1.30;;;18.80;45.50;;;;;;5098834;28;20802;-44
2023/06/03 12:46:17;;;;;;;2.73;1.07;;;18.50;45.10;;;;;;5080650;28;20547;-45
2023/06/03 12:48:45;;;;;;;2.37;1.17;;;18.80;45.30;;;;;;5099094;28;20480;-44
2023/06/03 12:51:28;;;;;;;8.83;1.67;;;19.00;45.00;;;;;;5098854;28;20452;-44
2023/06/03 12:53:56;;;;;;;3.07;1.43;;;19.00;45.10;;;;;;5097683;28;20439;-44
2023/06/03 12:56:24;;;;;;;4.20;1.40;;;18.60;45.40;;;;;;5098619;28;20501;-45
2023/06/03 12:58:51;;;;;;;4.03;1.10;;;18.80;46.70;;;;;;5099969;28;20432;-44